sensor_id;sensor_type;location;lat;lon;timestamp;P1;durP1;ratioP1;P2;durP2;ratioP2
40953;SDS011;26686;50.130;8.710;2022-07-23T00:03:29;6.13;;;4.90;;
40953;SDS011;26686;50.130;8.710;2022-07-23T00:08:30;7.35;;;4.95;;
40953;SDS011;26686;50.130;8.710;2022-07-23T00:13:31;7.90;;;4.85;;
40953;SDS011;26686;50.130;8.710;2022-07-23T00:18:33;9.02;;;5.20;;
40953;SDS011;26686;50.130;8.710;2022-07-23T00:23:34;5.57;;;4.40;;
40953;SDS011;26686;50.130;8.710;2022-07-23T00:28:36;4.75;;;4.35;;
40953;SDS011;26686;50.130;8.710;2022-07-23T00:33:37;6.22;;;4.80;;
40953;SDS011;26686;50.130;8.710;2022-07-23T00:38:38;5.65;;;4.80;;
40953;SDS011;26686;50.130;8.710;2022-07-23T00:43:40;5.30;;;4.80;;
40953;SDS011;26686;50.130;8.710;2022-07-23T00:48:41;6.03;;;5.35;;
40953;SDS011;26686;50.130;8.710;2022-07-23T00:53:43;6.30;;;5.70;;
40953;SDS011;26686;50.130;8.710;2022-07-23T00:58:46;5.37;;;4.40;;
40953;SDS011;26686;50.130;8.710;2022-07-23T01:03:47;5.80;;;5.15;;
40953;SDS011;26686;50.130;8.710;2022-07-23T01:08:49;4.78;;;4.38;;
40953;SDS011;26686;50.130;8.710;2022-07-23T01:13:50;5.32;;;4.82;;
40953;SDS011;26686;50.130;8.710;2022-07-23T01:18:52;5.70;;;5.10;;
40953;SDS011;26686;50.130;8.710;2022-07-23T01:23:53;6.97;;;4.93;;
40953;SDS011;26686;50.130;8.710;2022-07-23T01:28:54;5.43;;;4.93;;
40953;SDS011;26686;50.130;8.710;2022-07-23T01:33:56;5.55;;;5.00;;
40953;SDS011;26686;50.130;8.710;2022-07-23T01:38:57;5.43;;;4.70;;
40953;SDS011;26686;50.130;8.710;2022-07-23T01:43:59;5.43;;;4.90;;
40953;SDS011;26686;50.130;8.710;2022-07-23T01:49:01;5.50;;;4.72;;
40953;SDS011;26686;50.130;8.710;2022-07-23T01:54:03;6.00;;;5.40;;
40953;SDS011;26686;50.130;8.710;2022-07-23T01:59:04;5.00;;;4.60;;
40953;SDS011;26686;50.130;8.710;2022-07-23T02:04:06;5.75;;;4.93;;
40953;SDS011;26686;50.130;8.710;2022-07-23T02:09:07;5.00;;;4.53;;
40953;SDS011;26686;50.130;8.710;2022-07-23T02:14:09;6.60;;;4.72;;
40953;SDS011;26686;50.130;8.710;2022-07-23T02:19:10;8.27;;;4.82;;
40953;SDS011;26686;50.130;8.710;2022-07-23T02:24:11;6.95;;;5.35;;
40953;SDS011;26686;50.130;8.710;2022-07-23T02:29:13;5.80;;;5.22;;
40953;SDS011;26686;50.130;8.710;2022-07-23T02:34:14;6.45;;;5.30;;
40953;SDS011;26686;50.130;8.710;2022-07-23T02:39:16;5.10;;;4.63;;
40953;SDS011;26686;50.130;8.710;2022-07-23T02:44:17;5.45;;;4.90;;
40953;SDS011;26686;50.130;8.710;2022-07-23T02:49:19;5.72;;;5.13;;
40953;SDS011;26686;50.130;8.710;2022-07-23T02:54:20;5.70;;;5.13;;
40953;SDS011;26686;50.130;8.710;2022-07-23T02:59:21;7.03;;;5.30;;
40953;SDS011;26686;50.130;8.710;2022-07-23T03:04:23;7.20;;;5.28;;
40953;SDS011;26686;50.130;8.710;2022-07-23T03:09:24;4.93;;;4.40;;
40953;SDS011;26686;50.130;8.710;2022-07-23T03:14:26;6.05;;;5.55;;
40953;SDS011;26686;50.130;8.710;2022-07-23T03:19:28;5.97;;;5.30;;
40953;SDS011;26686;50.130;8.710;2022-07-23T03:24:30;5.95;;;5.35;;
40953;SDS011;26686;50.130;8.710;2022-07-23T03:29:50;7.40;;;5.30;;
40953;SDS011;26686;50.130;8.710;2022-07-23T03:34:53;5.32;;;4.82;;
40953;SDS011;26686;50.130;8.710;2022-07-23T03:39:55;6.10;;;5.40;;
40953;SDS011;26686;50.130;8.710;2022-07-23T03:44:56;5.82;;;5.30;;
40953;SDS011;26686;50.130;8.710;2022-07-23T03:49:58;6.22;;;5.68;;
40953;SDS011;26686;50.130;8.710;2022-07-23T03:54:59;7.40;;;5.90;;
40953;SDS011;26686;50.130;8.710;2022-07-23T04:00:01;6.47;;;5.43;;
40953;SDS011;26686;50.130;8.710;2022-07-23T04:05:04;6.00;;;5.30;;
40953;SDS011;26686;50.130;8.710;2022-07-23T04:10:07;6.57;;;5.97;;
40953;SDS011;26686;50.130;8.710;2022-07-23T04:15:08;6.70;;;5.82;;
40953;SDS011;26686;50.130;8.710;2022-07-23T04:20:10;6.70;;;6.10;;
40953;SDS011;26686;50.130;8.710;2022-07-23T04:25:12;6.18;;;5.57;;
40953;SDS011;26686;50.130;8.710;2022-07-23T04:30:14;6.20;;;5.60;;
40953;SDS011;26686;50.130;8.710;2022-07-23T04:35:16;7.38;;;6.15;;
40953;SDS011;26686;50.130;8.710;2022-07-23T04:40:17;5.90;;;5.35;;
40953;SDS011;26686;50.130;8.710;2022-07-23T04:45:18;7.03;;;6.32;;
40953;SDS011;26686;50.130;8.710;2022-07-23T04:50:21;6.38;;;5.72;;
40953;SDS011;26686;50.130;8.710;2022-07-23T04:55:23;6.45;;;5.85;;
40953;SDS011;26686;50.130;8.710;2022-07-23T05:00:24;6.22;;;5.72;;
40953;SDS011;26686;50.130;8.710;2022-07-23T05:05:26;7.07;;;6.45;;
40953;SDS011;26686;50.130;8.710;2022-07-23T05:10:27;7.45;;;6.75;;
40953;SDS011;26686;50.130;8.710;2022-07-23T05:15:28;7.32;;;6.70;;
40953;SDS011;26686;50.130;8.710;2022-07-23T05:20:30;6.63;;;6.05;;
40953;SDS011;26686;50.130;8.710;2022-07-23T05:25:31;7.00;;;6.40;;
40953;SDS011;26686;50.130;8.710;2022-07-23T05:30:33;7.35;;;6.65;;
40953;SDS011;26686;50.130;8.710;2022-07-23T05:35:35;7.80;;;7.10;;
40953;SDS011;26686;50.130;8.710;2022-07-23T05:40:36;6.47;;;5.88;;
40953;SDS011;26686;50.130;8.710;2022-07-23T05:45:38;8.88;;;6.80;;
40953;SDS011;26686;50.130;8.710;2022-07-23T05:50:39;7.20;;;6.50;;
40953;SDS011;26686;50.130;8.710;2022-07-23T05:55:40;7.45;;;6.75;;
40953;SDS011;26686;50.130;8.710;2022-07-23T06:00:42;7.55;;;6.80;;
40953;SDS011;26686;50.130;8.710;2022-07-23T06:05:43;8.73;;;7.55;;
40953;SDS011;26686;50.130;8.710;2022-07-23T06:10:45;7.88;;;6.53;;
40953;SDS011;26686;50.130;8.710;2022-07-23T06:15:46;6.65;;;5.60;;
40953;SDS011;26686;50.130;8.710;2022-07-23T06:20:48;5.63;;;5.13;;
40953;SDS011;26686;50.130;8.710;2022-07-23T06:25:51;7.95;;;6.07;;
40953;SDS011;26686;50.130;8.710;2022-07-23T06:30:53;6.13;;;5.63;;
40953;SDS011;26686;50.130;8.710;2022-07-23T06:35:55;7.03;;;5.82;;
40953;SDS011;26686;50.130;8.710;2022-07-23T06:40:57;7.03;;;5.18;;
40953;SDS011;26686;50.130;8.710;2022-07-23T06:45:58;6.53;;;5.57;;
40953;SDS011;26686;50.130;8.710;2022-07-23T06:51:01;5.57;;;4.80;;
40953;SDS011;26686;50.130;8.710;2022-07-23T06:56:03;5.50;;;5.00;;
40953;SDS011;26686;50.130;8.710;2022-07-23T07:01:05;7.07;;;5.88;;
40953;SDS011;26686;50.130;8.710;2022-07-23T07:06:07;5.35;;;4.80;;
40953;SDS011;26686;50.130;8.710;2022-07-23T07:11:08;7.20;;;5.00;;
40953;SDS011;26686;50.130;8.710;2022-07-23T07:16:10;4.50;;;4.10;;
40953;SDS011;26686;50.130;8.710;2022-07-23T07:21:12;6.15;;;3.95;;
40953;SDS011;26686;50.130;8.710;2022-07-23T07:26:13;4.93;;;4.43;;
40953;SDS011;26686;50.130;8.710;2022-07-23T07:31:15;5.72;;;3.80;;
40953;SDS011;26686;50.130;8.710;2022-07-23T07:36:16;4.47;;;3.83;;
40953;SDS011;26686;50.130;8.710;2022-07-23T07:41:19;4.97;;;3.95;;
40953;SDS011;26686;50.130;8.710;2022-07-23T07:46:24;6.00;;;4.25;;
40953;SDS011;26686;50.130;8.710;2022-07-23T07:51:28;6.35;;;4.60;;
40953;SDS011;26686;50.130;8.710;2022-07-23T07:56:30;4.63;;;3.75;;
40953;SDS011;26686;50.130;8.710;2022-07-23T08:01:32;6.85;;;4.25;;
40953;SDS011;26686;50.130;8.710;2022-07-23T08:06:33;5.47;;;3.58;;
40953;SDS011;26686;50.130;8.710;2022-07-23T08:11:35;5.68;;;4.35;;
40953;SDS011;26686;50.130;8.710;2022-07-23T08:16:37;5.53;;;4.47;;
40953;SDS011;26686;50.130;8.710;2022-07-23T08:21:58;4.60;;;4.10;;
40953;SDS011;26686;50.130;8.710;2022-07-23T08:26:59;4.30;;;3.65;;
40953;SDS011;26686;50.130;8.710;2022-07-23T08:32:01;4.35;;;4.05;;
40953;SDS011;26686;50.130;8.710;2022-07-23T08:37:22;4.32;;;3.92;;
40953;SDS011;26686;50.130;8.710;2022-07-23T08:42:23;4.03;;;3.63;;
40953;SDS011;26686;50.130;8.710;2022-07-23T08:47:26;4.03;;;3.55;;
40953;SDS011;26686;50.130;8.710;2022-07-23T08:52:30;4.70;;;4.30;;
40953;SDS011;26686;50.130;8.710;2022-07-23T08:57:31;4.67;;;4.07;;
40953;SDS011;26686;50.130;8.710;2022-07-23T09:02:38;4.85;;;3.92;;
40953;SDS011;26686;50.130;8.710;2022-07-23T09:13:04;5.07;;;3.63;;
40953;SDS011;26686;50.130;8.710;2022-07-23T09:18:06;4.72;;;4.03;;
40953;SDS011;26686;50.130;8.710;2022-07-23T09:23:07;4.70;;;3.45;;
40953;SDS011;26686;50.130;8.710;2022-07-23T09:28:13;6.65;;;4.30;;
40953;SDS011;26686;50.130;8.710;2022-07-23T09:33:14;5.03;;;3.78;;
40953;SDS011;26686;50.130;8.710;2022-07-23T09:38:17;4.68;;;3.60;;
40953;SDS011;26686;50.130;8.710;2022-07-23T09:43:26;3.72;;;3.35;;
40953;SDS011;26686;50.130;8.710;2022-07-23T09:48:35;4.00;;;3.67;;
40953;SDS011;26686;50.130;8.710;2022-07-23T09:53:36;3.42;;;3.05;;
40953;SDS011;26686;50.130;8.710;2022-07-23T09:58:37;3.17;;;2.75;;
40953;SDS011;26686;50.130;8.710;2022-07-23T10:03:44;4.32;;;3.40;;
40953;SDS011;26686;50.130;8.710;2022-07-23T10:08:47;3.47;;;3.17;;
40953;SDS011;26686;50.130;8.710;2022-07-23T10:13:50;4.07;;;3.40;;
40953;SDS011;26686;50.130;8.710;2022-07-23T10:19:01;3.80;;;2.97;;
40953;SDS011;26686;50.130;8.710;2022-07-23T10:24:12;3.13;;;2.78;;
40953;SDS011;26686;50.130;8.710;2022-07-23T10:39:40;3.78;;;3.47;;
40953;SDS011;26686;50.130;8.710;2022-07-23T10:44:45;3.70;;;3.30;;
40953;SDS011;26686;50.130;8.710;2022-07-23T10:49:48;4.63;;;4.22;;
40953;SDS011;26686;50.130;8.710;2022-07-23T10:54:51;3.90;;;3.42;;
40953;SDS011;26686;50.130;8.710;2022-07-23T11:05:13;2.95;;;2.75;;
40953;SDS011;26686;50.130;8.710;2022-07-23T11:11:19;3.80;;;3.00;;
40953;SDS011;26686;50.130;8.710;2022-07-23T11:21:31;3.50;;;3.13;;
40953;SDS011;26686;50.130;8.710;2022-07-23T11:31:51;2.78;;;2.38;;
40953;SDS011;26686;50.130;8.710;2022-07-23T11:36:53;3.72;;;2.80;;
40953;SDS011;26686;50.130;8.710;2022-07-23T11:46:58;3.28;;;3.00;;
40953;SDS011;26686;50.130;8.710;2022-07-23T11:52:08;3.40;;;3.20;;
40953;SDS011;26686;50.130;8.710;2022-07-23T11:57:14;5.45;;;2.47;;
40953;SDS011;26686;50.130;8.710;2022-07-23T12:02:16;3.28;;;2.97;;
40953;SDS011;26686;50.130;8.710;2022-07-23T12:12:38;4.03;;;3.38;;
40953;SDS011;26686;50.130;8.710;2022-07-23T12:17:43;3.00;;;2.70;;
40953;SDS011;26686;50.130;8.710;2022-07-23T12:22:52;4.53;;;3.00;;
40953;SDS011;26686;50.130;8.710;2022-07-23T12:27:58;4.18;;;3.65;;
40953;SDS011;26686;50.130;8.710;2022-07-23T12:33:09;3.53;;;3.10;;
40953;SDS011;26686;50.130;8.710;2022-07-23T12:38:12;3.60;;;3.30;;
40953;SDS011;26686;50.130;8.710;2022-07-23T12:43:20;5.82;;;3.80;;
40953;SDS011;26686;50.130;8.710;2022-07-23T12:48:39;4.32;;;3.85;;
40953;SDS011;26686;50.130;8.710;2022-07-23T12:53:59;3.65;;;3.38;;
40953;SDS011;26686;50.130;8.710;2022-07-23T12:59:08;4.65;;;4.20;;
40953;SDS011;26686;50.130;8.710;2022-07-23T13:04:17;4.22;;;3.83;;
40953;SDS011;26686;50.130;8.710;2022-07-23T13:09:23;3.88;;;3.42;;
40953;SDS011;26686;50.130;8.710;2022-07-23T13:14:27;4.00;;;3.70;;
40953;SDS011;26686;50.130;8.710;2022-07-23T13:19:29;3.72;;;3.42;;
40953;SDS011;26686;50.130;8.710;2022-07-23T13:24:30;4.28;;;3.50;;
40953;SDS011;26686;50.130;8.710;2022-07-23T13:29:32;3.83;;;3.53;;
40953;SDS011;26686;50.130;8.710;2022-07-23T13:34:33;4.55;;;4.15;;
40953;SDS011;26686;50.130;8.710;2022-07-23T13:39:39;3.40;;;3.20;;
40953;SDS011;26686;50.130;8.710;2022-07-23T13:44:43;4.57;;;4.18;;
40953;SDS011;26686;50.130;8.710;2022-07-23T13:49:44;5.25;;;4.20;;
40953;SDS011;26686;50.130;8.710;2022-07-23T13:54:48;4.30;;;3.90;;
40953;SDS011;26686;50.130;8.710;2022-07-23T13:59:50;3.83;;;3.33;;
40953;SDS011;26686;50.130;8.710;2022-07-23T14:04:51;4.13;;;3.83;;
40953;SDS011;26686;50.130;8.710;2022-07-23T14:09:54;4.32;;;4.03;;
40953;SDS011;26686;50.130;8.710;2022-07-23T14:14:55;4.47;;;3.95;;
40953;SDS011;26686;50.130;8.710;2022-07-23T14:19:58;4.32;;;4.03;;
40953;SDS011;26686;50.130;8.710;2022-07-23T14:25:00;4.80;;;4.50;;
40953;SDS011;26686;50.130;8.710;2022-07-23T14:35:04;4.30;;;4.00;;
40953;SDS011;26686;50.130;8.710;2022-07-23T14:40:11;4.60;;;4.13;;
40953;SDS011;26686;50.130;8.710;2022-07-23T14:45:12;4.32;;;3.95;;
40953;SDS011;26686;50.130;8.710;2022-07-23T14:50:14;4.65;;;4.25;;
40953;SDS011;26686;50.130;8.710;2022-07-23T14:55:16;5.15;;;4.65;;
40953;SDS011;26686;50.130;8.710;2022-07-23T15:00:19;4.45;;;4.05;;
40953;SDS011;26686;50.130;8.710;2022-07-23T15:05:24;4.32;;;4.00;;
40953;SDS011;26686;50.130;8.710;2022-07-23T15:10:27;4.43;;;4.03;;
40953;SDS011;26686;50.130;8.710;2022-07-23T15:15:28;6.47;;;3.90;;
40953;SDS011;26686;50.130;8.710;2022-07-23T15:20:31;4.18;;;3.78;;
40953;SDS011;26686;50.130;8.710;2022-07-23T15:25:38;4.95;;;3.92;;
40953;SDS011;26686;50.130;8.710;2022-07-23T15:35:41;4.22;;;3.78;;
40953;SDS011;26686;50.130;8.710;2022-07-23T15:40:44;3.85;;;3.55;;
40953;SDS011;26686;50.130;8.710;2022-07-23T15:45:45;3.67;;;3.37;;
40953;SDS011;26686;50.130;8.710;2022-07-23T15:50:47;4.07;;;3.20;;
40953;SDS011;26686;50.130;8.710;2022-07-23T15:55:49;3.70;;;3.10;;
40953;SDS011;26686;50.130;8.710;2022-07-23T16:00:50;3.40;;;3.03;;
40953;SDS011;26686;50.130;8.710;2022-07-23T16:05:52;4.35;;;3.20;;
40953;SDS011;26686;50.130;8.710;2022-07-23T16:10:53;3.33;;;3.10;;
40953;SDS011;26686;50.130;8.710;2022-07-23T16:15:57;2.95;;;2.75;;
40953;SDS011;26686;50.130;8.710;2022-07-23T16:20:59;3.92;;;3.40;;
40953;SDS011;26686;50.130;8.710;2022-07-23T16:26:09;3.33;;;2.90;;
40953;SDS011;26686;50.130;8.710;2022-07-23T16:31:11;3.15;;;2.83;;
40953;SDS011;26686;50.130;8.710;2022-07-23T16:36:12;3.88;;;3.45;;
40953;SDS011;26686;50.130;8.710;2022-07-23T16:41:14;4.30;;;2.70;;
40953;SDS011;26686;50.130;8.710;2022-07-23T16:46:15;3.90;;;3.10;;
40953;SDS011;26686;50.130;8.710;2022-07-23T16:51:17;2.78;;;2.58;;
40953;SDS011;26686;50.130;8.710;2022-07-23T16:56:18;3.13;;;2.83;;
40953;SDS011;26686;50.130;8.710;2022-07-23T17:01:19;3.10;;;2.67;;
40953;SDS011;26686;50.130;8.710;2022-07-23T17:06:21;4.82;;;3.40;;
40953;SDS011;26686;50.130;8.710;2022-07-23T17:11:23;2.73;;;2.50;;
40953;SDS011;26686;50.130;8.710;2022-07-23T17:16:24;3.28;;;2.97;;
40953;SDS011;26686;50.130;8.710;2022-07-23T17:21:25;3.28;;;2.70;;
40953;SDS011;26686;50.130;8.710;2022-07-23T17:26:27;5.27;;;2.47;;
40953;SDS011;26686;50.130;8.710;2022-07-23T17:31:28;3.87;;;1.70;;
40953;SDS011;26686;50.130;8.710;2022-07-23T17:36:33;3.60;;;3.30;;
40953;SDS011;26686;50.130;8.710;2022-07-23T17:41:35;2.95;;;2.75;;
40953;SDS011;26686;50.130;8.710;2022-07-23T17:46:36;3.20;;;2.80;;
40953;SDS011;26686;50.130;8.710;2022-07-23T17:51:38;3.78;;;2.53;;
40953;SDS011;26686;50.130;8.710;2022-07-23T17:56:39;3.57;;;3.27;;
40953;SDS011;26686;50.130;8.710;2022-07-23T18:01:41;3.22;;;2.38;;
40953;SDS011;26686;50.130;8.710;2022-07-23T18:06:43;3.65;;;3.33;;
40953;SDS011;26686;50.130;8.710;2022-07-23T18:11:45;6.90;;;5.47;;
40953;SDS011;26686;50.130;8.710;2022-07-23T18:16:47;7.35;;;5.88;;
40953;SDS011;26686;50.130;8.710;2022-07-23T18:21:48;4.60;;;4.03;;
40953;SDS011;26686;50.130;8.710;2022-07-23T18:26:50;3.50;;;3.00;;
40953;SDS011;26686;50.130;8.710;2022-07-23T18:31:52;3.45;;;2.88;;
40953;SDS011;26686;50.130;8.710;2022-07-23T18:36:53;3.20;;;2.90;;
40953;SDS011;26686;50.130;8.710;2022-07-23T18:41:55;5.25;;;3.50;;
40953;SDS011;26686;50.130;8.710;2022-07-23T18:46:56;3.95;;;3.65;;
40953;SDS011;26686;50.130;8.710;2022-07-23T18:51:58;4.35;;;3.38;;
40953;SDS011;26686;50.130;8.710;2022-07-23T18:57:00;3.93;;;2.97;;
40953;SDS011;26686;50.130;8.710;2022-07-23T19:02:01;8.18;;;4.35;;
40953;SDS011;26686;50.130;8.710;2022-07-23T19:07:03;6.13;;;4.17;;
40953;SDS011;26686;50.130;8.710;2022-07-23T19:12:04;7.25;;;4.43;;
40953;SDS011;26686;50.130;8.710;2022-07-23T19:17:06;4.72;;;3.22;;
40953;SDS011;26686;50.130;8.710;2022-07-23T19:22:07;6.60;;;4.45;;
40953;SDS011;26686;50.130;8.710;2022-07-23T19:27:11;10.00;;;5.05;;
40953;SDS011;26686;50.130;8.710;2022-07-23T19:32:12;4.13;;;3.63;;
40953;SDS011;26686;50.130;8.710;2022-07-23T19:37:14;3.53;;;3.10;;
40953;SDS011;26686;50.130;8.710;2022-07-23T19:42:16;4.95;;;3.72;;
40953;SDS011;26686;50.130;8.710;2022-07-23T19:52:20;5.53;;;3.30;;
40953;SDS011;26686;50.130;8.710;2022-07-23T19:57:21;7.28;;;4.53;;
40953;SDS011;26686;50.130;8.710;2022-07-23T20:02:22;4.28;;;3.88;;
40953;SDS011;26686;50.130;8.710;2022-07-23T20:07:24;5.35;;;3.60;;
40953;SDS011;26686;50.130;8.710;2022-07-23T20:12:25;4.18;;;3.58;;
40953;SDS011;26686;50.130;8.710;2022-07-23T20:17:27;5.82;;;3.55;;
40953;SDS011;26686;50.130;8.710;2022-07-23T20:22:28;4.55;;;3.33;;
40953;SDS011;26686;50.130;8.710;2022-07-23T20:27:30;3.53;;;2.97;;
40953;SDS011;26686;50.130;8.710;2022-07-23T20:32:31;3.83;;;3.20;;
40953;SDS011;26686;50.130;8.710;2022-07-23T20:37:33;5.63;;;3.53;;
40953;SDS011;26686;50.130;8.710;2022-07-23T20:42:34;3.97;;;3.67;;
40953;SDS011;26686;50.130;8.710;2022-07-23T20:47:36;3.92;;;3.63;;
40953;SDS011;26686;50.130;8.710;2022-07-23T20:52:37;3.42;;;3.13;;
40953;SDS011;26686;50.130;8.710;2022-07-23T20:57:39;3.83;;;3.42;;
40953;SDS011;26686;50.130;8.710;2022-07-23T21:02:41;4.17;;;3.77;;
40953;SDS011;26686;50.130;8.710;2022-07-23T21:07:42;3.85;;;3.25;;
40953;SDS011;26686;50.130;8.710;2022-07-23T21:12:44;3.83;;;3.40;;
40953;SDS011;26686;50.130;8.710;2022-07-23T21:17:47;5.03;;;3.28;;
40953;SDS011;26686;50.130;8.710;2022-07-23T21:22:48;3.88;;;3.15;;
40953;SDS011;26686;50.130;8.710;2022-07-23T21:27:50;4.30;;;3.40;;
40953;SDS011;26686;50.130;8.710;2022-07-23T21:32:51;3.80;;;3.30;;
40953;SDS011;26686;50.130;8.710;2022-07-23T21:37:53;5.97;;;3.70;;
40953;SDS011;26686;50.130;8.710;2022-07-23T21:42:54;8.40;;;4.93;;
40953;SDS011;26686;50.130;8.710;2022-07-23T21:47:56;4.10;;;3.70;;
40953;SDS011;26686;50.130;8.710;2022-07-23T21:52:57;4.10;;;3.70;;
40953;SDS011;26686;50.130;8.710;2022-07-23T21:57:59;3.85;;;3.55;;
40953;SDS011;26686;50.130;8.710;2022-07-23T22:03:00;5.15;;;4.43;;
40953;SDS011;26686;50.130;8.710;2022-07-23T22:13:05;4.30;;;3.90;;
40953;SDS011;26686;50.130;8.710;2022-07-23T22:18:06;5.05;;;3.50;;
40953;SDS011;26686;50.130;8.710;2022-07-23T22:23:07;3.97;;;3.67;;
40953;SDS011;26686;50.130;8.710;2022-07-23T22:28:09;5.57;;;3.80;;
40953;SDS011;26686;50.130;8.710;2022-07-23T22:33:10;5.32;;;3.25;;
40953;SDS011;26686;50.130;8.710;2022-07-23T22:38:11;4.00;;;2.95;;
40953;SDS011;26686;50.130;8.710;2022-07-23T22:43:13;3.85;;;3.55;;
40953;SDS011;26686;50.130;8.710;2022-07-23T22:48:14;4.93;;;3.67;;
40953;SDS011;26686;50.130;8.710;2022-07-23T22:53:15;3.95;;;3.63;;
40953;SDS011;26686;50.130;8.710;2022-07-23T22:58:17;3.58;;;3.25;;
40953;SDS011;26686;50.130;8.710;2022-07-23T23:03:18;4.22;;;3.22;;
40953;SDS011;26686;50.130;8.710;2022-07-23T23:08:20;3.28;;;2.97;;
40953;SDS011;26686;50.130;8.710;2022-07-23T23:13:21;3.30;;;2.88;;
40953;SDS011;26686;50.130;8.710;2022-07-23T23:18:23;4.15;;;3.45;;
40953;SDS011;26686;50.130;8.710;2022-07-23T23:23:24;4.35;;;3.05;;
40953;SDS011;26686;50.130;8.710;2022-07-23T23:28:25;3.78;;;2.92;;
40953;SDS011;26686;50.130;8.710;2022-07-23T23:33:27;3.40;;;3.10;;
40953;SDS011;26686;50.130;8.710;2022-07-23T23:38:28;3.20;;;2.97;;
40953;SDS011;26686;50.130;8.710;2022-07-23T23:43:30;7.45;;;2.88;;
40953;SDS011;26686;50.130;8.710;2022-07-23T23:48:31;2.80;;;2.60;;
40953;SDS011;26686;50.130;8.710;2022-07-23T23:53:33;3.22;;;3.00;;
40953;SDS011;26686;50.130;8.710;2022-07-23T23:58:34;3.50;;;2.53;;
